Terminal Aerodrome Forecast
Issued by NWS Pittsburgh, PA

Current Version | Previous Version | Text Only | Print | Product List | Glossary Off
Versions: 1 2 3 4 5 6 7 8 9 10 11 12 13 14 15 16 17 18 19 20 21 22 23 24 25 26 27 28 29 30 31 32 33

000
FTUS41 KPBZ 280800 AAA
TAFPIT
TAF AMD
KPIT 280845Z 2809/2912 29005KT P6SM SCT008 BKN040
      TEMPO 2809/2811 BKN008
     FM281500 31013G15KT P6SM VCSH BKN025
     FM282100 31013G18KT P6SM BKN035
     FM290200 30005KT P6SM FEW035=

USA.gov is the U.S. government's official web portal to all federal, state and local government web resources and services.